Preston, United Kingdom
Current Conditions -  °F | °C
As of 8:20 AM on Monday 24 Nov 2014 (Local Time) from EGGP Reporting Station
Scattered Clouds Scattered Clouds  
Wind Chill: 37°   Ceiling: Unl
Heat Index: 41°   Visibility: 6mi
Dew Point: 37°   Wind: 6mph
Humidity: 87%   Direction: 250°WSW
Pressure: 30.27"   Gusts: NA
Location:  53.76°N, 2.71°W
Report Text: EGGP 240820Z 25005KT 9999 SCT038 05/03 Q1025
Loading
Personal Weather Stations






























Interactive Weather Map New forecast layout! Learn more

10-Day Weather Forecast

Advertisements
Track Severe Weather on mobile